Time;durP1;ratioP1;P1;durP2;ratioP2;P2;SDS_P1;SDS_P2;PMS_P1;PMS_P2;Temp;Humidity;BMP_temperature;BMP_pressure;BME280_temperature;BME280_humidity;BME280_pressure;Samples;Min_cycle;Max_cycle;Signal;HPM_P1;HPM_P2
2022/05/14 00:00:29;;;;;;;;;2.00;2.00;;;;;18.90;58.51;101945.94;5037511;28;45289;-76
2022/05/14 00:02:58;;;;;;;;;4.50;2.00;;;;;18.88;58.48;101947.66;5037151;28;45194;-76
2022/05/14 00:05:25;;;;;;;;;1.75;1.75;;;;;18.85;58.74;101937.06;5036967;28;46000;-76
2022/05/14 00:07:51;;;;;;;;;3.50;2.25;;;;;18.87;58.59;101941.50;5036968;28;45408;-76
2022/05/14 00:10:19;;;;;;;;;2.50;2.50;;;;;18.83;58.81;101938.75;5037369;28;45413;-75
2022/05/14 00:15:39;;;;;;;;;4.75;2.00;;;;;18.72;58.49;101938.44;5037331;28;45789;-76
2022/05/14 00:18:07;;;;;;;;;2.00;2.00;;;;;18.72;59.47;101944.56;5036533;28;45216;-76
2022/05/14 00:20:33;;;;;;;;;1.00;1.00;;;;;18.70;58.54;101940.13;5037017;28;45454;-76
2022/05/14 00:22:59;;;;;;;;;2.00;2.00;;;;;18.70;59.15;101941.00;5037868;28;45311;-76
2022/05/14 00:25:26;;;;;;;;;3.00;2.00;;;;;18.67;58.68;101943.56;5037435;28;45411;-76
2022/05/14 00:27:52;;;;;;;;;2.00;2.00;;;;;18.63;59.27;101939.06;5036629;28;45473;-76
2022/05/14 00:30:23;;;;;;;;;3.50;2.00;;;;;18.65;59.27;101939.09;5036712;28;45399;-76
2022/05/14 00:32:49;;;;;;;;;2.25;2.00;;;;;18.64;59.84;101938.22;5037299;28;45465;-76
2022/05/14 00:35:15;;;;;;;;;2.00;2.00;;;;;18.60;59.64;101936.34;5036651;28;45982;-76
2022/05/14 00:37:41;;;;;;;;;4.50;1.50;;;;;18.58;59.85;101934.53;5036262;28;45778;-75
2022/05/14 00:40:15;;;;;;;;;2.75;2.00;;;;;18.55;59.87;101928.34;5036876;28;45353;-76
2022/05/14 00:42:40;;;;;;;;;2.25;2.25;;;;;18.55;59.41;101930.09;5037118;28;45440;-75
2022/05/14 00:45:08;;;;;;;;;1.25;1.25;;;;;18.56;60.06;101927.50;5036222;28;45427;-75
2022/05/14 00:47:37;;;;;;;;;5.00;3.00;;;;;18.59;59.33;101931.06;5036379;28;45482;-76
2022/05/14 00:50:29;;;;;;;;;4.75;2.00;;;;;18.61;59.64;101932.00;5036698;28;45404;-76
2022/05/14 00:53:01;;;;;;;;;4.00;2.00;;;;;18.59;59.71;101925.81;5034082;28;45436;-76
2022/05/14 00:55:28;;;;;;;;;2.00;2.00;;;;;18.56;59.59;101917.00;5036878;28;45399;-75
2022/05/14 00:57:54;;;;;;;;;1.00;1.00;;;;;18.58;59.96;101918.78;5035972;28;45652;-76
2022/05/14 01:00:22;;;;;;;;;2.25;2.00;;;;;18.56;59.37;101916.13;5036531;28;45263;-76
2022/05/14 01:02:49;;;;;;;;;3.00;2.00;;;;;18.52;59.46;101912.50;5036901;28;45380;-76
2022/05/14 01:05:18;;;;;;;;;0.50;0.50;;;;;18.50;59.61;101918.53;5035066;28;45859;-76
2022/05/14 01:07:46;;;;;;;;;4.00;2.00;;;;;18.45;60.37;101923.66;5036456;28;45308;-76
2022/05/14 01:10:15;;;;;;;;;1.00;1.00;;;;;18.44;60.41;101924.50;5036159;28;45257;-76
2022/05/14 01:12:58;;;;;;;;;3.00;2.00;;;;;18.43;60.75;101913.97;5036747;28;45324;-76
2022/05/14 01:15:36;;;;;;;;;2.00;2.00;;;;;18.43;60.90;101913.97;5035911;28;46417;-76
2022/05/14 01:18:01;;;;;;;;;3.50;2.25;;;;;18.45;61.31;101907.94;5036184;28;45775;-76
2022/05/14 01:20:27;;;;;;;;;2.00;2.00;;;;;18.43;60.79;101909.59;5035822;28;45438;-76
2022/05/14 01:22:59;;;;;;;;;3.50;2.25;;;;;18.39;60.72;101911.25;5036654;28;45379;-76
2022/05/14 01:28:44;;;;;;;;;2.00;2.00;;;;;18.36;61.32;101908.53;5035846;28;45225;-76
2022/05/14 01:31:09;;;;;;;;;3.00;2.25;;;;;18.36;61.17;101900.66;5035414;28;45369;-76
2022/05/14 01:33:55;;;;;;;;;4.00;4.00;;;;;18.36;61.64;101900.66;5036524;28;45285;-76
2022/05/14 01:36:21;;;;;;;;;2.25;2.25;;;;;18.35;61.51;101908.50;5035814;28;46169;-76
2022/05/14 01:38:47;;;;;;;;;2.50;2.25;;;;;18.32;61.16;101911.91;5035326;28;45407;-76
2022/05/14 01:41:12;;;;;;;;;6.00;3.00;;;;;18.30;61.87;101907.47;5035689;28;45270;-79
2022/05/14 01:43:38;;;;;;;;;4.75;3.50;;;;;18.25;61.77;101908.22;5035975;28;45554;-76
2022/05/14 01:46:24;;;;;;;;;2.25;2.25;;;;;18.23;62.08;101902.03;5035153;28;45947;-79
2022/05/14 01:48:50;;;;;;;;;3.00;3.00;;;;;18.23;62.24;101902.03;5017922;28;45351;-78
2022/05/14 01:51:16;;;;;;;;;2.00;2.00;;;;;18.21;62.16;101905.47;5017881;28;45406;-79
2022/05/14 01:53:42;;;;;;;;;3.00;3.00;;;;;18.20;61.60;101907.16;5036225;28;45404;-76
2022/05/14 01:56:08;;;;;;;;;4.00;3.00;;;;;18.17;62.85;101898.31;5035401;28;46193;-76
2022/05/14 01:58:37;;;;;;;;;6.50;5.00;;;;;18.16;62.06;101894.84;5017901;28;45296;-76
2022/05/14 02:01:18;;;;;;;;;2.00;2.00;;;;;18.15;62.67;101900.00;5034790;28;45470;-75
2022/05/14 02:03:47;;;;;;;;;4.50;4.00;;;;;18.08;63.44;101901.56;5035997;28;45223;-76
2022/05/14 02:06:14;;;;;;;;;5.00;4.00;;;;;18.06;63.52;101903.25;5035101;28;46098;-76
2022/05/14 02:08:40;;;;;;;;;4.00;4.00;;;;;18.02;63.29;101899.66;5035663;28;45292;-76
2022/05/14 02:11:08;;;;;;;;;4.50;3.25;;;;;18.00;63.81;101898.72;5034836;28;45434;-76
2022/05/14 02:13:35;;;;;;;;;5.50;4.00;;;;;18.00;64.16;101897.78;5035654;28;45453;-76
2022/05/14 02:16:02;;;;;;;;;6.00;4.00;;;;;17.97;64.45;101888.13;5035045;28;46284;-76
2022/05/14 02:18:28;;;;;;;;;5.50;2.50;;;;;17.92;64.83;101895.81;5038993;28;45372;-76
2022/05/14 02:20:53;;;;;;;;;4.25;4.25;;;;;17.87;65.18;101899.13;5039081;28;45352;-76
2022/05/14 02:23:19;;;;;;;;;7.00;5.00;;;;;17.84;65.59;101892.06;5038853;28;45561;-76
2022/05/14 02:25:45;;;;;;;;;6.00;4.25;;;;;17.86;65.37;101897.34;5038828;28;46383;-76
2022/05/14 02:28:11;;;;;;;;;5.00;4.00;;;;;17.88;65.17;101890.41;5038293;28;45393;-76
2022/05/14 02:30:37;;;;;;;;;5.50;4.50;;;;;17.83;65.53;101892.88;5039010;28;45452;-76
2022/05/14 02:33:03;;;;;;;;;5.00;4.75;;;;;17.76;65.85;101891.81;5038898;28;45536;-75
2022/05/14 02:35:29;;;;;;;;;6.50;4.00;;;;;17.76;65.87;101898.78;5038597;28;46081;-76
2022/05/14 02:37:54;;;;;;;;;5.25;3.00;;;;;17.74;65.82;101889.97;5038515;28;45480;-76
2022/05/14 02:40:21;;;;;;;;;8.25;5.50;;;;;17.73;65.58;101893.44;5038538;28;45381;-75
2022/05/14 02:42:47;;;;;;;;;5.75;4.25;;;;;17.73;66.34;101893.44;5038553;28;45202;-75
2022/05/14 02:45:13;;;;;;;;;6.00;4.75;;;;;17.75;66.19;101902.25;5038293;28;45304;-76
2022/05/14 02:47:39;;;;;;;;;5.00;4.00;;;;;17.71;66.67;101897.72;5038519;28;45807;-75
2022/05/14 02:50:07;;;;;;;;;5.00;3.00;;;;;17.68;65.62;101901.16;5038412;28;45287;-76
2022/05/14 02:52:33;;;;;;;;;4.75;4.00;;;;;17.68;66.59;101900.22;5038837;28;45450;-76
2022/05/14 02:54:59;;;;;;;;;4.75;4.25;;;;;17.71;65.93;101895.09;5038623;28;46000;-76
2022/05/14 02:57:24;;;;;;;;;3.25;3.00;;;;;17.70;66.78;101895.94;5038091;28;45278;-75
2022/05/14 02:59:50;;;;;;;;;6.00;5.75;;;;;17.71;66.79;101901.22;5038291;28;45435;-75
2022/05/14 03:02:17;;;;;;;;;5.75;4.25;;;;;17.71;66.83;101906.47;5038449;28;45626;-76
2022/05/14 03:04:44;;;;;;;;;11.00;5.00;;;;;17.72;66.83;101899.50;5038249;28;45342;-76
2022/05/14 03:07:11;;;;;;;;;5.50;5.00;;;;;17.72;66.70;101903.00;5037739;28;45330;-76
2022/05/14 03:09:38;;;;;;;;;3.00;3.00;;;;;17.72;66.81;101902.13;5020236;28;45524;-76
2022/05/14 03:12:05;;;;;;;;;5.75;5.75;;;;;17.71;66.80;101900.34;5038404;28;45394;-76
2022/05/14 03:14:33;;;;;;;;;6.50;4.00;;;;;17.69;66.38;101899.41;5029260;28;45388;-76
2022/05/14 03:16:59;;;;;;;;;5.25;5.25;;;;;17.68;66.61;101897.63;5018433;28;45356;-76
2022/05/14 03:19:25;;;;;;;;;8.75;5.75;;;;;17.68;66.81;101890.66;5017917;28;45392;-76
2022/05/14 03:21:51;;;;;;;;;7.00;5.75;;;;;17.69;66.90;101897.69;5018549;28;45579;-76
2022/05/14 03:24:16;;;;;;;;;6.50;5.00;;;;;17.68;67.38;101890.66;5029048;28;45403;-76
2022/05/14 03:26:43;;;;;;;;;5.75;4.75;;;;;17.66;67.40;101896.66;5038053;28;45302;-76
2022/05/14 03:29:09;;;;;;;;;8.00;6.00;;;;;17.64;66.93;101907.09;5036076;28;45318;-77
2022/05/14 03:31:36;;;;;;;;;6.25;5.00;;;;;17.63;67.39;101902.69;5038178;28;45179;-77
2022/05/14 03:34:03;;;;;;;;;6.50;5.00;;;;;17.62;67.65;101908.78;5037443;28;45240;-76
2022/05/14 03:36:29;;;;;;;;;6.50;6.25;;;;;17.52;67.59;101901.44;5037817;28;45777;-76
2022/05/14 03:38:55;;;;;;;;;6.50;6.00;;;;;17.44;67.98;101902.09;5037768;28;45418;-77
2022/05/14 03:41:22;;;;;;;;;6.50;4.75;;;;;17.44;67.82;101903.84;5037933;28;45261;-78
2022/05/14 03:43:49;;;;;;;;;6.75;6.50;;;;;17.40;68.60;101900.19;5037640;28;45371;-78
2022/05/14 03:46:15;;;;;;;;;4.75;4.50;;;;;17.38;68.22;101898.38;5037508;28;45843;-78
2022/05/14 03:48:41;;;;;;;;;5.00;5.00;;;;;17.30;68.34;101900.72;5037405;28;45258;-77
2022/05/14 03:51:08;;;;;;;;;4.25;3.25;;;;;17.29;69.23;101898.94;5037670;28;45332;-77
2022/05/14 03:53:36;;;;;;;;;9.75;6.00;;;;;17.29;68.94;101899.84;5036989;28;46064;-78
2022/05/14 03:56:03;;;;;;;;;6.50;5.50;;;;;17.28;69.56;101899.78;5036556;28;45942;-77
2022/05/14 03:58:30;;;;;;;;;5.75;5.75;;;;;17.25;69.60;101899.69;5037698;28;45232;-78
2022/05/14 04:00:56;;;;;;;;;5.00;4.00;;;;;17.25;69.98;101897.94;5037681;28;46973;-78
2022/05/14 04:03:22;;;;;;;;;8.25;7.00;;;;;17.21;69.90;101895.16;5037037;28;45234;-78
2022/05/14 04:05:47;;;;;;;;;6.25;6.25;;;;;17.18;69.98;101891.59;5037321;28;45338;-79
2022/05/14 04:08:13;;;;;;;;;6.00;5.75;;;;;17.14;70.41;101892.34;5037308;28;45284;-77
2022/05/14 04:10:39;;;;;;;;;4.25;3.50;;;;;17.12;70.68;101896.63;5037076;28;45470;-78
2022/05/14 04:13:05;;;;;;;;;8.00;6.00;;;;;17.14;70.60;101901.91;5037090;28;45322;-76
2022/05/14 04:15:30;;;;;;;;;6.00;5.00;;;;;17.14;70.89;101900.22;5036319;28;46078;-76
2022/05/14 04:17:56;;;;;;;;;7.75;5.75;;;;;17.11;71.35;101904.44;5037563;28;45471;-76
2022/05/14 04:20:22;;;;;;;;;4.75;4.75;;;;;17.06;71.05;101903.38;5037194;28;45364;-75
2022/05/14 04:22:50;;;;;;;;;6.25;6.00;;;;;17.04;71.23;101903.34;5036571;28;45513;-75
2022/05/14 04:25:17;;;;;;;;;8.50;8.25;;;;;17.07;71.39;101903.41;5035434;28;45518;-75
2022/05/14 04:27:44;;;;;;;;;8.25;7.00;;;;;17.04;71.45;101900.72;5037217;28;45467;-75
2022/05/14 04:30:12;;;;;;;;;7.75;7.00;;;;;16.98;71.49;101901.38;5037051;28;45390;-74
2022/05/14 04:32:37;;;;;;;;;3.00;2.00;;;;;16.96;71.62;101902.13;5018951;28;46386;-75
2022/05/14 04:35:04;;;;;;;;;7.75;7.50;;;;;16.95;71.98;101897.78;5036527;28;45348;-74
2022/05/14 04:37:30;;;;;;;;;7.00;6.75;;;;;16.93;72.19;101907.25;5037154;28;45177;-74
2022/05/14 04:39:55;;;;;;;;;7.00;7.00;;;;;16.92;71.86;101908.09;5036449;28;45494;-74
2022/05/14 04:42:21;;;;;;;;;6.25;5.75;;;;;16.91;71.92;101916.75;5036271;28;46072;-74
2022/05/14 04:44:47;;;;;;;;;9.75;5.75;;;;;16.91;72.18;101909.78;5035912;28;45308;-74
2022/05/14 04:47:14;;;;;;;;;5.75;5.75;;;;;16.92;71.79;101910.69;5036300;28;45574;-75
2022/05/14 04:49:45;;;;;;;;;6.50;5.50;;;;;16.93;71.74;101912.47;5037023;28;45362;-75
2022/05/14 04:52:11;;;;;;;;;9.75;6.00;;;;;16.95;71.18;101900.38;5036219;28;46219;-75
2022/05/14 04:54:38;;;;;;;;;10.00;6.75;;;;;17.01;72.30;101908.44;5017567;28;45297;-75
2022/05/14 04:57:04;;;;;;;;;10.75;7.75;;;;;17.03;71.56;101912.00;5036431;28;45316;-74
2022/05/14 04:59:30;;;;;;;;;8.75;8.75;;;;;17.02;71.33;101913.72;5036125;28;45420;-74
2022/05/14 05:04:41;;;;;;;;;6.50;6.00;;;;;16.99;71.53;101907.50;5036389;28;45492;-74
2022/05/14 05:07:06;;;;;;;;;9.75;7.50;;;;;17.00;71.75;101906.66;5036226;28;45388;-74
2022/05/14 05:09:32;;;;;;;;;8.25;8.25;;;;;17.03;72.33;101909.41;5036064;28;45399;-74
2022/05/14 05:11:58;;;;;;;;;8.00;7.00;;;;;17.04;71.74;101905.03;5036619;28;45440;-74
2022/05/14 05:14:25;;;;;;;;;12.00;10.00;;;;;17.06;71.50;101906.00;5035796;28;45316;-75
2022/05/14 05:16:50;;;;;;;;;13.25;10.50;;;;;17.08;71.20;101904.31;5035790;28;45333;-74
2022/05/14 05:19:17;;;;;;;;;12.50;10.00;;;;;17.13;72.01;101916.75;5036158;28;45455;-74
2022/05/14 05:21:42;;;;;;;;;11.50;8.50;;;;;17.16;71.59;101909.00;5035524;28;46159;-77
2022/05/14 05:24:09;;;;;;;;;9.50;8.00;;;;;17.20;71.51;101912.63;5035773;28;45533;-76
2022/05/14 05:26:35;;;;;;;;;11.00;9.25;;;;;17.23;71.38;101919.69;5035882;28;45883;-75
2022/05/14 05:29:01;;;;;;;;;8.25;7.25;;;;;17.21;71.23;101914.41;5035627;28;45554;-75
2022/05/14 05:31:27;;;;;;;;;12.25;8.25;;;;;17.25;71.56;101921.50;5036211;28;45353;-75
2022/05/14 05:33:53;;;;;;;;;10.50;8.75;;;;;17.28;70.90;101918.09;5035983;28;45623;-75
2022/05/14 05:36:18;;;;;;;;;9.00;7.25;;;;;17.30;71.08;101914.72;5035592;28;45365;-76
2022/05/14 05:38:44;;;;;;;;;7.75;7.75;;;;;17.36;70.49;101914.03;5035751;28;45529;-76
2022/05/14 05:41:10;;;;;;;;;11.50;9.25;;;;;17.42;70.58;101910.75;5035227;28;45483;-75
2022/05/14 05:43:35;;;;;;;;;10.75;9.75;;;;;17.45;70.00;101922.22;5035780;28;45328;-76
2022/05/14 05:46:01;;;;;;;;;8.25;8.25;;;;;17.46;70.29;101924.00;5035951;28;45340;-75
2022/05/14 05:48:27;;;;;;;;;10.50;10.50;;;;;17.46;69.61;101925.69;5036516;28;45343;-76
2022/05/14 05:50:53;;;;;;;;;10.25;10.00;;;;;17.48;70.03;101926.66;5036250;28;46068;-76
2022/05/14 05:56:46;;;;;;;;;9.75;9.50;;;;;17.50;69.84;101932.84;5041807;28;45347;-75
2022/05/14 05:58:49;;;;;;;;;13.25;9.50;;;;;17.55;69.77;101931.25;5042731;28;45403;-77
2022/05/14 06:01:18;;;;;;;;;7.00;7.00;;;;;17.57;69.00;101926.94;5041572;28;46065;-75
2022/05/14 06:03:43;;;;;;;;;7.00;6.00;;;;;17.59;68.15;101925.28;5044383;28;45380;-75
2022/05/14 06:06:09;;;;;;;;;7.00;5.00;;;;;17.59;67.24;101927.03;5042118;28;45329;-75
2022/05/14 06:08:34;;;;;;;;;6.00;4.50;;;;;17.58;67.37;101938.34;5042069;28;45521;-76
2022/05/14 06:11:00;;;;;;;;;7.00;4.50;;;;;17.60;67.07;101934.06;5041996;28;45958;-77
2022/05/14 06:13:26;;;;;;;;;6.25;6.00;;;;;17.62;66.88;101933.25;5045137;28;45178;-76
2022/05/14 06:15:52;;;;;;;;;4.00;4.00;;;;;17.63;66.59;101929.81;5042712;28;45260;-79
2022/05/14 06:18:18;;;;;;;;;7.25;6.00;;;;;17.66;66.10;101935.94;5044369;28;45529;-76
2022/05/14 06:20:44;;;;;;;;;3.75;3.75;;;;;17.66;65.42;101938.56;5050063;28;45297;-76
2022/05/14 06:23:10;;;;;;;;;4.50;4.00;;;;;17.61;65.35;101936.72;5041845;28;45424;-78
2022/05/14 06:25:36;;;;;;;;;4.00;3.00;;;;;17.61;65.38;101951.50;5042019;28;45460;-76
2022/05/14 06:28:02;;;;;;;;;4.00;4.00;;;;;17.63;64.75;101942.00;5050179;28;45716;-78
2022/05/14 06:30:30;;;;;;;;;5.25;3.00;;;;;17.60;64.14;101942.78;5041556;28;45349;-78
2022/05/14 06:33:04;;;;;;;;;3.00;3.00;;;;;17.63;64.37;101948.13;5042391;28;45166;-77
2022/05/14 06:35:30;;;;;;;;;5.50;4.50;;;;;17.68;64.57;101943.03;5042435;28;45279;-76
2022/05/14 06:37:56;;;;;;;;;4.00;3.00;;;;;17.73;64.56;101945.81;5042528;28;45428;-75
2022/05/14 06:40:22;;;;;;;;;2.75;2.75;;;;;17.76;64.87;101952.03;5041834;28;45718;-76
2022/05/14 06:42:47;;;;;;;;;4.75;3.00;;;;;17.82;64.15;101945.25;5044900;28;45237;-77
2022/05/14 06:45:13;;;;;;;;;3.25;2.25;;;;;17.88;63.96;101951.56;5041362;28;45237;-78
2022/05/14 06:47:38;;;;;;;;;4.00;2.50;;;;;17.92;63.61;101942.97;5041798;28;45545;-76
2022/05/14 06:50:05;;;;;;;;;5.75;3.75;;;;;17.93;63.39;101938.59;5039014;28;45487;-77
2022/05/14 06:52:32;;;;;;;;;4.25;3.50;;;;;17.96;63.29;101943.94;5037273;28;45342;-77
2022/05/14 06:54:59;;;;;;;;;4.50;3.50;;;;;17.96;63.14;101941.31;5035316;28;45268;-77
2022/05/14 06:57:25;;;;;;;;;3.00;2.75;;;;;17.99;63.02;101937.94;5032051;28;45316;-77
2022/05/14 06:59:51;;;;;;;;;4.50;4.00;;;;;17.97;63.06;101948.38;5036990;28;45570;-77
2022/05/14 07:02:18;;;;;;;;;4.00;3.00;;;;;18.00;62.71;101950.19;5039639;28;45458;-77
2022/05/14 07:07:29;;;;;;;;;3.50;3.50;;;;;18.03;62.57;101951.19;5037515;28;45553;-77
2022/05/14 07:09:55;;;;;;;;;4.00;3.00;;;;;18.05;62.18;101960.00;5038694;28;45428;-77
2022/05/14 07:12:21;;;;;;;;;4.50;3.25;;;;;18.07;62.17;101949.59;5037645;28;45324;-76
2022/05/14 07:14:47;;;;;;;;;5.00;2.50;;;;;18.14;62.21;101951.56;5037516;28;45430;-82
2022/05/14 07:17:13;;;;;;;;;5.75;4.00;;;;;18.18;61.63;101945.56;5013697;28;45455;-78
2022/05/14 07:19:39;;;;;;;;;5.00;3.75;;;;;18.23;61.67;101946.59;5020957;28;47718;-78
2022/05/14 07:22:06;;;;;;;;;2.75;2.50;;;;;18.25;61.03;101941.38;5031332;28;45809;-78
2022/05/14 07:24:32;;;;;;;;;3.00;3.00;;;;;18.25;61.20;101944.00;5024081;28;45426;-81
2022/05/14 07:27:01;;;;;;;;;4.00;4.00;;;;;18.25;61.58;101938.75;5038052;28;45555;-79
2022/05/14 07:29:29;;;;;;;;;6.00;3.00;;;;;18.31;61.22;101941.59;5031084;28;46378;-79
2022/05/14 07:31:55;;;;;;;;;3.00;2.00;;;;;18.33;61.38;101931.16;5040749;28;45729;-83
2022/05/14 07:34:22;;;;;;;;;5.25;4.00;;;;;18.38;61.30;101925.19;5031850;28;45305;-87
2022/05/14 07:37:01;;;;;;;;;5.75;5.00;;;;;18.43;60.69;101927.97;5001944;28;45633;-76
2022/05/14 07:39:32;;;;;;;;;5.25;4.00;;;;;18.46;61.35;101928.06;5023845;28;46090;-75
2022/05/14 07:42:03;;;;;;;;;3.50;3.50;;;;;18.54;60.96;101933.53;5037950;28;45328;-79
2022/05/14 07:44:36;;;;;;;;;7.50;5.00;;;;;18.58;60.31;101929.28;5038631;28;45336;-75
2022/05/14 07:47:03;;;;;;;;;8.25;6.00;;;;;18.58;60.34;101930.16;5037147;28;45449;-77
2022/05/14 07:49:30;;;;;;;;;4.75;3.50;;;;;18.52;61.20;101922.13;5028483;28;46267;-76
2022/05/14 07:51:56;;;;;;;;;5.00;5.00;;;;;18.52;61.20;101928.22;5027671;28;45464;-77
2022/05/14 07:54:25;;;;;;;;;4.75;4.75;;;;;18.55;61.32;101920.47;5028027;28;45451;-76
2022/05/14 07:56:52;;;;;;;;;7.75;5.25;;;;;18.58;61.17;101918.78;5028662;28;45575;-76
2022/05/14 07:59:18;;;;;;;;;6.25;6.00;;;;;18.60;61.31;101919.72;5035061;28;45523;-76
2022/05/14 08:01:44;;;;;;;;;5.75;5.75;;;;;18.66;61.27;101922.50;5035774;28;45488;-76
2022/05/14 08:04:12;;;;;;;;;5.00;4.00;;;;;18.70;61.14;101924.41;5037465;28;45217;-82
2022/05/14 08:06:38;;;;;;;;;4.00;4.00;;;;;18.78;60.80;101924.63;5017652;28;45360;-78
2022/05/14 08:09:04;;;;;;;;;4.00;4.00;;;;;18.85;60.66;101913.44;5033760;28;45987;-79
2022/05/14 08:11:31;;;;;;;;;2.75;2.75;;;;;18.86;59.48;101912.59;5033220;28;45870;-81
2022/05/14 08:13:59;;;;;;;;;4.75;3.00;;;;;18.86;58.94;101917.84;5020173;28;45420;-79
2022/05/14 08:16:25;;;;;;;;;3.50;3.00;;;;;18.82;59.70;101908.09;5033495;28;45432;-77
2022/05/14 08:18:52;;;;;;;;;3.00;3.00;;;;;18.92;60.01;101925.88;5030427;28;46353;-78
2022/05/14 08:26:50;;;;;;;;;5.25;4.25;;;;;19.06;59.55;101921.03;5037579;28;45371;-82
2022/05/14 08:29:18;;;;;;;;;5.00;3.25;;;;;19.11;59.10;101919.44;5036797;28;45693;-77
2022/05/14 08:31:44;;;;;;;;;8.25;4.75;;;;;19.17;58.92;101919.59;5025332;28;45310;-78
2022/05/14 08:34:10;;;;;;;;;4.00;4.00;;;;;19.21;58.57;101903.94;5027420;28;45271;-80
2022/05/14 08:36:37;;;;;;;;;3.50;3.00;;;;;19.26;58.86;101918.09;5026248;28;45245;-82
2022/05/14 08:39:03;;;;;;;;;3.25;3.25;;;;;19.33;59.00;101915.66;5025083;28;46217;-77
2022/05/14 08:41:35;;;;;;;;;3.00;3.00;;;;;19.39;58.71;101916.69;5030201;28;45964;-80
2022/05/14 08:44:07;;;;;;;;;4.75;2.50;;;;;19.47;58.59;101921.28;5027925;28;45516;-81
2022/05/14 08:46:36;;;;;;;;;4.50;3.00;;;;;19.52;58.05;101918.78;5027357;28;45530;-78
2022/05/14 08:49:21;;;;;;;;;4.00;3.25;;;;;19.56;57.99;101910.09;5028972;28;46471;-80
2022/05/14 08:51:50;;;;;;;;;5.00;4.00;;;;;19.58;57.29;101907.53;5025284;28;45224;-80
2022/05/14 08:54:18;;;;;;;;;4.00;3.75;;;;;19.61;57.68;101900.63;5021362;28;45470;-78
2022/05/14 08:57:14;;;;;;;;;8.00;5.00;;;;;19.70;57.11;101899.06;5024632;28;45316;-79
2022/05/14 09:00:00;;;;;;;;;3.75;3.75;;;;;19.75;56.54;101907.97;5027105;28;46542;-77
2022/05/14 09:02:30;;;;;;;;;4.75;4.00;;;;;19.75;56.70;101898.31;5029279;28;46493;-78
2022/05/14 09:05:08;;;;;;;;;4.00;4.00;;;;;19.84;56.98;101902.00;5027037;28;46567;-78
2022/05/14 09:07:36;;;;;;;;;4.00;4.00;;;;;19.88;57.22;101899.53;5032223;28;45483;-79
2022/05/14 09:10:05;;;;;;;;;1.00;1.00;;;;;19.90;56.18;101904.84;5028012;28;46884;-79
2022/05/14 09:12:34;;;;;;;;;3.25;3.25;;;;;19.90;56.38;101905.72;5032077;28;45534;-79
2022/05/14 09:15:15;;;;;;;;;3.50;3.50;;;;;19.91;56.13;101896.97;5034555;28;45256;-80
2022/05/14 09:17:40;;;;;;;;;4.75;3.75;;;;;19.94;56.54;101897.06;5027281;28;45979;-79
2022/05/14 09:20:07;;;;;;;;;3.75;3.75;;;;;19.98;56.26;101902.41;5021211;28;45818;-80
2022/05/14 09:22:52;;;;;;;;;3.00;3.00;;;;;19.99;56.33;101891.91;5027237;28;45555;-79
2022/05/14 09:25:43;;;;;;;;;4.25;2.00;;;;;20.00;55.05;101887.53;5028040;28;45442;-81
2022/05/14 09:28:21;;;;;;;;;4.00;2.75;;;;;20.03;55.16;101890.22;5012109;28;46556;-80
2022/05/14 09:30:56;;;;;;;;;5.00;3.25;;;;;20.05;55.21;101893.78;5026800;28;45792;-80
2022/05/14 09:33:28;;;;;;;;;1.75;1.75;;;;;20.07;55.03;101887.72;5032810;28;45487;-80
2022/05/14 09:36:00;;;;;;;;;4.25;2.00;;;;;20.09;54.27;101888.63;5027975;28;45927;-79
2022/05/14 09:38:27;;;;;;;;;2.75;2.00;;;;;20.09;53.12;101886.00;5031642;28;45454;-80
2022/05/14 09:40:55;;;;;;;;;2.00;2.00;;;;;20.07;53.32;101874.56;5037763;28;45815;-80
2022/05/14 09:43:26;;;;;;;;;3.50;3.50;;;;;20.09;53.29;101877.22;5031557;28;45344;-81
2022/05/14 09:46:02;;;;;;;;;2.00;2.00;;;;;20.13;53.40;101871.19;5029839;28;45506;-81
2022/05/14 09:48:33;;;;;;;;;2.75;2.75;;;;;20.18;53.54;101864.31;5034426;28;45158;-81
2022/05/14 09:51:02;;;;;;;;;2.50;2.50;;;;;20.23;54.18;101860.00;5021653;28;46566;-79
2022/05/14 09:53:31;;;;;;;;;4.00;3.00;;;;;20.29;52.28;101868.91;5016082;28;45222;-80
2022/05/14 09:56:08;;;;;;;;;5.25;3.25;;;;;20.30;52.15;101857.53;5017639;28;45589;-81
2022/05/14 09:58:43;;;;;;;;;2.00;2.00;;;;;20.33;52.56;101847.97;5023592;28;45482;-80
2022/05/14 10:01:34;;;;;;;;;2.25;2.00;;;;;20.38;52.58;101846.28;5013242;28;46023;-80
2022/05/14 10:04:14;;;;;;;;;1.50;1.50;;;;;20.44;52.01;101850.81;4979364;28;45454;-78
2022/05/14 10:07:02;;;;;;;;;3.00;2.00;;;;;20.48;51.04;101847.38;5021552;28;45304;-78
2022/05/14 10:09:47;;;;;;;;;3.00;2.00;;;;;20.51;50.80;101847.47;5039675;28;45419;-79
2022/05/14 10:12:32;;;;;;;;;4.00;2.00;;;;;20.54;50.65;101857.16;5035351;28;45436;-81
2022/05/14 10:15:05;;;;;;;;;3.00;2.00;;;;;20.54;49.97;101844.88;5034652;28;45380;-81
2022/05/14 10:17:55;;;;;;;;;1.00;1.00;;;;;20.54;50.02;101847.50;5034409;28;45351;-81
2022/05/14 10:20:42;;;;;;;;;2.00;2.00;;;;;20.57;50.01;101846.69;5028394;28;45463;-84
2022/05/14 10:26:46;;;;;;;;;3.00;2.00;;;;;20.70;50.14;101843.44;5034777;28;45301;-80
2022/05/14 10:29:33;;;;;;;;;1.75;1.75;;;;;20.78;49.28;101842.75;5035246;28;45495;-82
2022/05/14 10:32:04;;;;;;;;;3.00;3.00;;;;;20.86;49.38;101854.28;5037734;28;45387;-81
2022/05/14 10:34:48;;;;;;;;;4.00;3.25;;;;;20.90;49.00;101840.31;5040794;28;46275;-78
2022/05/14 10:37:31;;;;;;;;;3.00;3.00;;;;;20.96;48.62;101836.91;5034982;28;45415;-80
2022/05/14 10:40:26;;;;;;;;;3.00;3.00;;;;;21.01;49.27;101840.53;5039271;28;45316;-80
2022/05/14 10:42:57;;;;;;;;;4.00;3.25;;;;;21.05;49.10;101830.94;5025289;28;45388;-88
2022/05/14 10:45:38;;;;;;;;;5.25;4.75;;;;;21.12;49.03;101830.16;5037388;28;45227;-82
2022/05/14 10:48:15;;;;;;;;;4.00;4.00;;;;;21.17;49.43;101821.50;5034373;28;45479;-83
2022/05/14 10:50:40;;;;;;;;;4.25;4.00;;;;;21.21;48.67;101825.09;5036902;28;45339;-79
2022/05/14 10:53:08;;;;;;;;;2.00;2.00;;;;;21.24;48.53;101826.88;5021037;28;45432;-81
2022/05/14 10:55:47;;;;;;;;;3.25;3.25;;;;;21.22;49.00;101818.94;5037828;28;46162;-85
2022/05/14 10:58:35;;;;;;;;;3.00;2.50;;;;;21.25;47.63;101826.88;5037039;28;46632;-78
2022/05/14 11:01:02;;;;;;;;;5.50;4.00;;;;;21.25;47.95;101813.72;5039140;28;45269;-78
2022/05/14 11:03:32;;;;;;;;;4.00;4.00;;;;;21.29;48.20;101822.56;5021526;28;45584;-81
2022/05/14 11:06:00;;;;;;;;;6.75;4.75;;;;;21.30;49.07;101817.34;5021016;28;45312;-77
2022/05/14 11:08:42;;;;;;;;;3.25;2.75;;;;;21.37;49.48;101813.06;5038553;28;45728;-76
2022/05/14 11:11:18;;;;;;;;;4.00;4.00;;;;;21.53;49.07;101815.91;5037401;28;45385;-76
2022/05/14 11:14:03;;;;;;;;;4.00;4.00;;;;;21.60;47.94;101816.06;5019981;28;45606;-78
2022/05/14 11:16:36;;;;;;;;;7.50;6.50;;;;;21.65;48.34;101810.88;5036502;28;45990;-82
2022/05/14 11:19:04;;;;;;;;;6.00;4.75;;;;;21.70;49.08;101805.66;5037256;28;45834;-79
2022/05/14 11:21:40;;;;;;;;;5.75;5.75;;;;;21.76;49.97;101798.72;5037141;28;45455;-81
2022/05/14 11:24:08;;;;;;;;;3.75;3.75;;;;;21.80;47.57;101795.28;5037516;28;45523;-81
2022/05/14 11:26:49;;;;;;;;;7.00;6.00;;;;;21.80;47.63;101803.19;5034568;28;46107;-80
2022/05/14 11:29:26;;;;;;;;;7.00;4.25;;;;;21.79;47.29;101793.50;5034028;28;45722;-82
2022/05/14 11:32:04;;;;;;;;;6.00;2.50;;;;;21.78;47.16;101794.38;5018580;28;45245;-82
2022/05/14 11:34:30;;;;;;;;;5.25;4.00;;;;;21.81;46.78;101790.88;5000658;28;45525;-81
2022/05/14 11:36:58;;;;;;;;;4.00;4.00;;;;;21.80;46.88;101794.38;5027664;28;46504;-79
2022/05/14 11:39:29;;;;;;;;;6.25;4.00;;;;;21.83;47.98;101783.88;5019693;28;45427;-81
2022/05/14 11:42:08;;;;;;;;;4.00;3.00;;;;;21.86;47.36;101789.22;5038003;28;45807;-80
2022/05/14 11:44:50;;;;;;;;;4.75;4.75;;;;;21.91;46.00;101789.28;5040252;28;45475;-81
2022/05/14 11:47:53;;;;;;;;;3.75;3.75;;;;;21.94;45.29;101784.91;5037645;28;45596;-80
2022/05/14 11:50:25;;;;;;;;;6.00;4.00;;;;;21.97;45.04;101789.34;5020288;28;45615;-80
2022/05/14 11:53:15;;;;;;;;;4.00;4.00;;;;;22.02;45.49;101770.94;5025567;28;45496;-81
2022/05/14 11:55:53;;;;;;;;;4.50;4.00;;;;;22.08;45.24;101774.53;5044056;28;45470;-87
2022/05/14 11:58:25;;;;;;;;;6.50;5.00;;;;;22.15;45.25;101767.59;5035656;28;45435;-79